createdAt,value
2019-05-02T00:01:27.784Z,9.00
2019-05-02T00:04:00.799Z,8.70
2019-05-02T00:06:38.090Z,8.20
2019-05-02T00:09:11.156Z,7.90
2019-05-02T00:11:52.289Z,7.70
2019-05-02T00:14:19.110Z,7.60
2019-05-02T00:16:52.015Z,7.50
2019-05-02T00:19:24.963Z,7.40
2019-05-02T00:21:58.039Z,7.40
2019-05-02T00:24:33.861Z,7.30
2019-05-02T00:27:06.106Z,7.60
2019-05-02T00:29:39.036Z,8.10
2019-05-02T00:32:12.224Z,8.40
2019-05-02T00:34:45.206Z,8.50
2019-05-02T00:37:18.929Z,8.60
2019-05-02T00:39:52.983Z,8.10
2019-05-02T00:42:25.776Z,7.80
2019-05-02T00:44:58.519Z,7.50
2019-05-02T00:47:42.398Z,7.30
2019-05-02T00:50:16.551Z,7.20
2019-05-02T00:52:49.485Z,7.20
2019-05-02T00:55:22.469Z,7.30
2019-05-02T00:57:56.816Z,8.00
2019-05-02T01:00:32.494Z,8.60
2019-05-02T01:03:05.504Z,8.80
2019-05-02T01:05:40.044Z,8.80
2019-05-02T01:08:14.144Z,8.70
2019-05-02T01:10:47.113Z,8.40
2019-05-02T01:13:21.105Z,8.00
2019-05-02T01:15:54.134Z,7.70
2019-05-02T01:18:27.313Z,7.60
2019-05-02T01:21:02.811Z,7.80
2019-05-02T01:23:34.862Z,7.40
2019-05-02T01:26:10.471Z,7.20
2019-05-02T01:28:59.079Z,7.00
2019-05-02T01:31:49.859Z,7.00
2019-05-02T01:34:36.847Z,7.50
2019-05-02T01:37:35.296Z,7.70
2019-05-02T01:40:08.391Z,7.80
2019-05-02T01:42:44.507Z,8.00
2019-05-02T01:45:16.219Z,7.70
2019-05-02T01:47:49.002Z,7.60
2019-05-02T01:50:21.835Z,7.50
2019-05-02T01:52:58.508Z,7.20
2019-05-02T01:55:29.547Z,7.00
2019-05-02T01:58:02.296Z,7.00
2019-05-02T02:00:35.071Z,6.90
2019-05-02T02:03:09.139Z,6.70
2019-05-02T02:05:43.075Z,6.50
2019-05-02T02:08:16.156Z,6.40
2019-05-02T02:10:50.784Z,6.60
2019-05-02T02:13:23.587Z,6.70
2019-05-02T02:16:00.127Z,6.50
2019-05-02T02:18:35.951Z,6.80
2019-05-02T02:21:25.629Z,7.00
2019-05-02T02:24:04.252Z,6.70
2019-05-02T02:26:37.052Z,6.40
2019-05-02T02:29:09.990Z,6.20
2019-05-02T02:31:46.514Z,6.10
2019-05-02T02:34:21.590Z,6.10
2019-05-02T02:36:52.392Z,6.00
2019-05-02T02:39:25.233Z,5.90
2019-05-02T02:41:58.283Z,5.90
2019-05-02T02:44:52.403Z,6.00
2019-05-02T02:47:25.802Z,6.20
2019-05-02T02:50:02.364Z,6.10
2019-05-02T02:52:37.883Z,6.10
2019-05-02T02:55:09.143Z,6.10
2019-05-02T02:57:42.275Z,6.10
2019-05-02T03:00:15.243Z,6.50
2019-05-02T03:02:49.967Z,7.20
2019-05-02T03:05:25.889Z,7.70
2019-05-02T03:07:59.480Z,8.10
2019-05-02T03:10:32.302Z,8.00
2019-05-02T03:13:24.280Z,7.60
2019-05-02T03:16:00.272Z,7.30
2019-05-02T03:18:39.803Z,7.20
2019-05-02T03:21:13.109Z,7.40
2019-05-02T03:23:42.506Z,7.70
2019-05-02T03:26:17.108Z,8.10
2019-05-02T03:28:57.191Z,8.40
2019-05-02T03:31:30.254Z,8.60
2019-05-02T03:34:01.184Z,8.10
2019-05-02T03:36:36.546Z,7.90
2019-05-02T03:39:14.938Z,7.80
2019-05-02T03:41:44.043Z,7.90
2019-05-02T03:44:24.780Z,7.80
2019-05-02T03:46:54.193Z,7.90
2019-05-02T03:49:26.516Z,8.10
2019-05-02T03:52:02.882Z,8.10
2019-05-02T03:54:34.642Z,8.00
2019-05-02T03:57:07.517Z,7.90
2019-05-02T03:59:41.858Z,7.70
2019-05-02T04:02:20.369Z,7.70
2019-05-02T04:04:59.886Z,7.70
2019-05-02T04:07:25.074Z,7.90
2019-05-02T04:09:58.194Z,8.10
2019-05-02T04:12:33.085Z,8.00
2019-05-02T04:15:09.482Z,7.90
2019-05-02T04:17:41.404Z,8.10
2019-05-02T04:20:14.223Z,8.10
2019-05-02T04:22:49.107Z,8.10
2019-05-02T04:25:27.929Z,8.20
2019-05-02T04:27:58.938Z,8.20
2019-05-02T04:30:31.917Z,8.20
2019-05-02T04:33:04.800Z,8.40
2019-05-02T04:35:37.860Z,8.50
2019-05-02T04:38:19.972Z,8.40
2019-05-02T04:40:48.913Z,8.40
2019-05-02T04:43:20.336Z,8.30
2019-05-02T04:48:43.848Z,8.50
2019-05-02T04:51:16.632Z,8.40
2019-05-02T04:53:49.879Z,8.50
2019-05-02T04:56:23.189Z,8.40
2019-05-02T04:58:56.039Z,8.20
2019-05-02T05:01:33.124Z,8.40
2019-05-02T05:04:03.648Z,8.30
2019-05-02T05:06:40.528Z,8.20
2019-05-02T05:09:14.707Z,8.40
2019-05-02T05:11:48.090Z,8.30
2019-05-02T05:14:20.568Z,8.50
2019-05-02T05:16:55.701Z,8.50
2019-05-02T05:19:32.641Z,8.50
2019-05-02T05:22:04.900Z,8.50
2019-05-02T05:24:43.237Z,8.40
2019-05-02T05:27:18.935Z,8.40
2019-05-02T05:29:53.528Z,8.40
2019-05-02T05:32:25.574Z,8.40
2019-05-02T05:35:03.298Z,8.40
2019-05-02T05:37:33.247Z,8.40
2019-05-02T05:40:08.226Z,8.30
2019-05-02T05:42:40.959Z,8.40
2019-05-02T05:45:14.164Z,8.50
2019-05-02T05:47:47.894Z,8.30
2019-05-02T05:50:20.984Z,8.40
2019-05-02T05:52:53.759Z,8.40
2019-05-02T05:55:28.170Z,8.50
2019-05-02T05:58:11.877Z,8.50
2019-05-02T06:00:38.035Z,8.60
2019-05-02T06:03:14.061Z,8.90
2019-05-02T06:05:47.718Z,9.00
2019-05-02T06:08:20.779Z,9.10
2019-05-02T06:10:53.939Z,9.00
2019-05-02T06:13:28.933Z,9.00
2019-05-02T06:16:03.188Z,9.00
2019-05-02T06:18:41.738Z,9.00
2019-05-02T06:21:12.433Z,9.10
2019-05-02T06:23:45.638Z,9.20
2019-05-02T06:26:18.515Z,9.40
2019-05-02T06:28:51.648Z,9.20
2019-05-02T06:31:24.525Z,9.30
2019-05-02T06:34:01.982Z,9.20
2019-05-02T06:36:36.811Z,9.20
2019-05-02T06:39:19.525Z,9.20
2019-05-02T06:41:57.155Z,9.20
2019-05-02T06:44:27.353Z,9.40
2019-05-02T06:47:04.350Z,9.50
2019-05-02T06:49:35.991Z,9.70
2019-05-02T06:52:08.810Z,10.10
2019-05-02T06:54:41.668Z,9.90
2019-05-02T06:57:14.478Z,9.80
2019-05-02T06:59:50.022Z,9.70
2019-05-02T07:02:22.144Z,10.00
2019-05-02T07:04:56.012Z,9.90
2019-05-02T07:07:31.337Z,9.90
2019-05-02T07:10:07.251Z,9.80
2019-05-02T07:12:39.455Z,10.00
2019-05-02T07:15:38.415Z,10.30
2019-05-02T07:18:12.616Z,10.40
2019-05-02T07:20:45.546Z,10.60
2019-05-02T07:23:18.476Z,10.60
2019-05-02T07:25:51.734Z,10.50
2019-05-02T07:28:24.676Z,10.70
2019-05-02T07:30:57.991Z,10.70
2019-05-02T07:33:32.402Z,10.80
2019-05-02T07:36:05.694Z,10.80
2019-05-02T07:38:39.552Z,10.60
2019-05-02T07:41:12.566Z,10.60
2019-05-02T07:43:45.467Z,10.50
2019-05-02T07:46:21.033Z,10.60
2019-05-02T07:48:54.633Z,10.60
2019-05-02T07:51:28.020Z,10.60
2019-05-02T07:54:00.822Z,10.70
2019-05-02T07:56:33.851Z,10.80
2019-05-02T07:59:06.856Z,11.00
2019-05-02T08:01:44.962Z,11.00
2019-05-02T08:04:15.566Z,11.10
2019-05-02T08:06:48.594Z,11.10
2019-05-02T08:09:21.454Z,11.40
2019-05-02T08:11:54.364Z,11.40
2019-05-02T08:14:29.144Z,11.30
2019-05-02T08:17:05.865Z,11.20
2019-05-02T08:19:37.570Z,11.10
2019-05-02T08:22:14.540Z,11.30
2019-05-02T08:24:46.470Z,11.20
2019-05-02T08:27:39.969Z,11.20
2019-05-02T08:30:19.985Z,11.30
2019-05-02T08:32:52.842Z,11.40
2019-05-02T08:35:28.008Z,11.60
2019-05-02T08:38:01.632Z,11.50
2019-05-02T08:40:36.043Z,11.80
2019-05-02T08:43:10.827Z,11.90
2019-05-02T08:45:43.602Z,12.00
2019-05-02T08:48:16.652Z,12.20
2019-05-02T08:50:51.060Z,12.40
2019-05-02T08:53:23.946Z,11.90
2019-05-02T08:55:56.845Z,11.80
2019-05-02T08:58:29.905Z,12.10
2019-05-02T09:01:03.037Z,12.10
2019-05-02T09:03:54.803Z,12.20
2019-05-02T09:06:10.731Z,12.20
2019-05-02T09:08:46.187Z,12.50
2019-05-02T09:11:18.354Z,12.50
2019-05-02T09:13:52.592Z,12.30
2019-05-02T09:16:28.692Z,12.30
2019-05-02T09:19:02.635Z,12.10
2019-05-02T09:21:36.025Z,11.90
2019-05-02T09:24:13.576Z,12.30
2019-05-02T09:26:43.837Z,12.60
2019-05-02T09:29:16.706Z,13.10
2019-05-02T09:31:49.466Z,13.40
2019-05-02T09:34:26.523Z,13.40
2019-05-02T09:36:57.028Z,13.20
2019-05-02T09:39:32.705Z,12.90
2019-05-02T09:42:06.637Z,13.00
2019-05-02T09:44:39.496Z,13.00
2019-05-02T09:47:22.202Z,13.40
2019-05-02T09:50:14.118Z,13.60
2019-05-02T09:55:50.262Z,13.30
2019-05-02T09:58:21.901Z,13.50
2019-05-02T10:01:11.754Z,12.90
2019-05-02T10:03:44.727Z,13.30
2019-05-02T10:06:18.298Z,13.30
2019-05-02T10:08:52.009Z,13.40
2019-05-02T10:11:26.306Z,13.20
2019-05-02T10:13:59.262Z,13.50
2019-05-02T10:16:32.112Z,14.20
2019-05-02T10:19:09.639Z,13.80
2019-05-02T10:21:39.781Z,14.10
2019-05-02T10:24:12.913Z,13.30
2019-05-02T10:26:45.845Z,13.40
2019-05-02T10:29:20.954Z,14.50
2019-05-02T10:31:53.551Z,14.90
2019-05-02T10:34:26.562Z,15.30
2019-05-02T10:37:00.962Z,15.90
2019-05-02T10:39:37.799Z,15.40
2019-05-02T10:42:08.828Z,15.40
2019-05-02T10:44:42.630Z,15.40
2019-05-02T10:47:15.784Z,15.60
2019-05-02T10:49:59.398Z,16.40
2019-05-02T10:52:34.251Z,15.50
2019-05-02T10:55:07.189Z,15.00
2019-05-02T10:57:42.048Z,15.60
2019-05-02T11:00:16.227Z,16.50
2019-05-02T11:03:14.807Z,16.30
2019-05-02T11:05:52.799Z,17.10
2019-05-02T11:08:26.017Z,17.40
2019-05-02T11:10:59.104Z,17.30
2019-05-02T11:13:43.332Z,17.60
2019-05-02T11:16:32.288Z,18.00
2019-05-02T11:19:08.784Z,18.20
2019-05-02T11:21:53.556Z,18.30
2019-05-02T11:24:16.608Z,17.30
2019-05-02T11:26:49.524Z,17.10
2019-05-02T11:29:22.771Z,16.30
2019-05-02T11:31:55.897Z,15.50
2019-05-02T11:34:32.491Z,15.90
2019-05-02T11:37:05.179Z,16.70
2019-05-02T11:39:48.505Z,16.30
2019-05-02T11:42:17.542Z,16.60
2019-05-02T11:44:48.260Z,17.50
2019-05-02T11:47:22.738Z,18.40
2019-05-02T11:49:56.183Z,18.10
2019-05-02T11:52:34.836Z,17.90
2019-05-02T11:55:04.465Z,18.50
2019-05-02T11:57:37.520Z,19.00
2019-05-02T12:00:12.476Z,18.30
2019-05-02T12:03:04.988Z,17.80
2019-05-02T12:05:41.944Z,17.50
2019-05-02T12:08:15.368Z,17.80
2019-05-02T12:10:48.509Z,18.20
2019-05-02T12:13:22.673Z,19.00
2019-05-02T12:15:55.855Z,19.30
2019-05-02T12:18:29.043Z,18.30
2019-05-02T12:21:02.728Z,18.70
2019-05-02T12:23:36.329Z,18.40
2019-05-02T12:26:09.474Z,18.00
2019-05-02T12:28:42.981Z,18.10
2019-05-02T12:31:26.068Z,17.70
2019-05-02T12:34:02.638Z,17.20
2019-05-02T12:36:35.903Z,17.60
2019-05-02T12:39:09.943Z,17.20
2019-05-02T12:41:43.082Z,17.10
2019-05-02T12:44:16.285Z,16.90
2019-05-02T12:46:51.627Z,17.10
2019-05-02T12:49:27.702Z,17.10
2019-05-02T12:51:58.868Z,17.30
2019-05-02T12:54:32.520Z,17.80
2019-05-02T12:57:05.646Z,18.50
2019-05-02T12:59:38.719Z,19.30
2019-05-02T13:02:18.511Z,19.50
2019-05-02T13:04:52.702Z,18.80
2019-05-02T13:07:25.705Z,18.60
2019-05-02T13:09:58.864Z,18.10
2019-05-02T13:12:35.134Z,18.90
2019-05-02T13:15:08.721Z,19.10
2019-05-02T13:17:48.741Z,20.00
2019-05-02T13:20:18.880Z,20.10
2019-05-02T13:23:08.194Z,19.30
2019-05-02T13:25:42.372Z,19.20
2019-05-02T13:28:17.014Z,19.40
2019-05-02T13:31:02.229Z,19.90
2019-05-02T13:33:42.799Z,19.50
2019-05-02T13:36:51.885Z,18.80
2019-05-02T13:39:34.734Z,18.80
2019-05-02T13:42:08.590Z,17.90
2019-05-02T13:44:48.956Z,18.10
2019-05-02T13:47:22.752Z,17.80
2019-05-02T13:50:00.684Z,17.60
2019-05-02T13:52:33.198Z,17.30
2019-05-02T13:55:07.372Z,17.90
2019-05-02T13:57:43.015Z,18.00
2019-05-02T14:00:19.774Z,17.90
2019-05-02T14:02:52.862Z,17.60
2019-05-02T14:05:25.845Z,17.90
2019-05-02T14:08:16.655Z,17.40
2019-05-02T14:10:53.349Z,17.70
2019-05-02T14:13:26.409Z,18.20
2019-05-02T14:15:59.534Z,18.30
2019-05-02T14:18:33.587Z,18.30
2019-05-02T14:21:07.057Z,18.30
2019-05-02T14:23:41.903Z,18.40
2019-05-02T14:26:27.236Z,18.10
2019-05-02T14:28:49.214Z,18.40
2019-05-02T14:31:22.136Z,18.30
2019-05-02T14:34:23.682Z,18.20
2019-05-02T14:36:59.333Z,18.20
2019-05-02T14:39:32.557Z,18.10
2019-05-02T14:42:05.591Z,17.60
2019-05-02T14:45:01.538Z,17.40
2019-05-02T14:47:18.243Z,17.10
2019-05-02T14:49:48.380Z,17.00
2019-05-02T14:52:22.148Z,16.80
2019-05-02T14:54:55.718Z,17.00
2019-05-02T14:57:28.783Z,16.90
2019-05-02T15:00:03.356Z,16.80
2019-05-02T15:02:49.006Z,16.90
2019-05-02T15:05:19.183Z,17.20
2019-05-02T15:07:56.876Z,17.00
2019-05-02T15:10:28.287Z,16.80
2019-05-02T15:13:01.933Z,16.90
2019-05-02T15:15:40.884Z,16.80
2019-05-02T15:18:13.454Z,16.20
2019-05-02T15:20:45.407Z,16.20
2019-05-02T15:23:19.838Z,16.10
2019-05-02T15:25:56.075Z,15.80
2019-05-02T15:28:30.554Z,15.70
2019-05-02T15:31:05.448Z,15.60
2019-05-02T15:33:51.882Z,15.50
2019-05-02T15:36:24.688Z,15.40
2019-05-02T15:41:32.700Z,15.40
2019-05-02T15:44:05.941Z,15.20
2019-05-02T15:46:40.277Z,15.00
2019-05-02T15:49:13.221Z,15.10
2019-05-02T15:51:49.853Z,15.00
2019-05-02T15:54:22.697Z,15.10
2019-05-02T15:57:05.479Z,15.10
2019-05-02T15:59:32.404Z,15.10
2019-05-02T16:02:10.107Z,15.10
2019-05-02T16:04:43.642Z,15.10
2019-05-02T16:07:17.642Z,15.10
2019-05-02T16:09:51.584Z,15.10
2019-05-02T16:12:27.283Z,15.00
2019-05-02T16:15:02.257Z,14.90
2019-05-02T16:17:35.251Z,14.70
2019-05-02T16:20:16.567Z,14.50
2019-05-02T16:22:50.021Z,14.40
2019-05-02T16:25:24.522Z,14.30
2019-05-02T16:28:02.723Z,14.10
2019-05-02T16:30:32.561Z,13.80
2019-05-02T16:33:08.005Z,13.10
2019-05-02T16:35:41.938Z,12.60
2019-05-02T16:38:14.889Z,12.00
2019-05-02T16:40:48.105Z,11.70
2019-05-02T16:43:22.271Z,11.40
2019-05-02T16:45:56.853Z,11.40
2019-05-02T16:48:30.563Z,11.40
2019-05-02T16:51:08.150Z,11.30
2019-05-02T16:53:39.295Z,11.40
2019-05-02T16:56:12.258Z,11.30
2019-05-02T16:58:47.008Z,11.30
2019-05-02T17:01:24.560Z,11.30
2019-05-02T17:03:57.739Z,11.30
2019-05-02T17:06:30.083Z,11.30
2019-05-02T17:09:21.706Z,11.30
2019-05-02T17:11:53.832Z,11.50
2019-05-02T17:14:26.928Z,11.30
2019-05-02T17:17:01.530Z,11.30
2019-05-02T17:19:34.883Z,11.30
2019-05-02T17:22:07.808Z,11.40
2019-05-02T17:24:41.871Z,11.40
2019-05-02T17:27:20.510Z,11.40
2019-05-02T17:29:54.277Z,11.20
2019-05-02T17:32:28.823Z,11.10
2019-05-02T17:35:02.633Z,11.20
2019-05-02T17:37:34.737Z,11.20
2019-05-02T17:40:08.354Z,11.30
2019-05-02T17:42:41.560Z,11.30
2019-05-02T17:45:15.407Z,11.30
2019-05-02T17:47:48.419Z,11.20
2019-05-02T17:50:29.163Z,11.20
2019-05-02T17:53:03.067Z,11.20
2019-05-02T17:55:40.370Z,11.30
2019-05-02T17:58:12.789Z,11.30
2019-05-02T18:00:54.574Z,11.30
2019-05-02T18:03:30.779Z,11.30
2019-05-02T18:05:58.149Z,11.20
2019-05-02T18:08:32.279Z,11.10
2019-05-02T18:11:05.398Z,11.20
2019-05-02T18:13:38.235Z,11.10
2019-05-02T18:16:15.005Z,11.10
2019-05-02T18:18:46.870Z,11.10
2019-05-02T18:21:26.899Z,11.00
2019-05-02T18:23:57.245Z,11.00
2019-05-02T18:26:31.728Z,11.00
2019-05-02T18:29:06.828Z,11.00
2019-05-02T18:31:43.415Z,11.00
2019-05-02T18:34:20.177Z,10.80
2019-05-02T18:36:48.844Z,10.80
2019-05-02T18:39:22.950Z,10.80
2019-05-02T18:41:56.048Z,10.80
2019-05-02T18:44:29.268Z,10.60
2019-05-02T18:47:02.508Z,10.60
2019-05-02T18:49:35.969Z,10.70
2019-05-02T18:52:09.006Z,10.60
2019-05-02T18:54:43.948Z,10.60
2019-05-02T18:57:21.434Z,10.60
2019-05-02T18:59:56.077Z,10.60
2019-05-02T19:02:32.740Z,10.70
2019-05-02T19:05:01.988Z,10.60
2019-05-02T19:07:35.897Z,10.60
2019-05-02T19:10:09.278Z,10.50
2019-05-02T19:12:42.685Z,10.50
2019-05-02T19:15:16.073Z,10.60
2019-05-02T19:17:48.990Z,10.60
2019-05-02T19:20:59.725Z,10.50
2019-05-02T19:23:34.448Z,10.40
2019-05-02T19:26:14.641Z,10.40
2019-05-02T19:29:02.514Z,10.50
2019-05-02T19:31:46.086Z,10.50
2019-05-02T19:34:22.838Z,10.50
2019-05-02T19:36:58.019Z,10.50
2019-05-02T19:39:29.768Z,10.50
2019-05-02T19:42:02.750Z,10.60
2019-05-02T19:44:35.660Z,10.50
2019-05-02T19:47:13.716Z,10.50
2019-05-02T19:49:47.243Z,10.50
2019-05-02T19:52:18.247Z,10.60
2019-05-02T19:54:51.879Z,10.60
2019-05-02T19:57:26.376Z,10.60
2019-05-02T20:00:02.679Z,10.60
2019-05-02T20:02:37.485Z,10.50
2019-05-02T20:05:09.413Z,10.60
2019-05-02T20:07:42.726Z,10.70
2019-05-02T20:10:17.861Z,10.60
2019-05-02T20:12:52.755Z,10.60
2019-05-02T20:15:28.943Z,10.70
2019-05-02T20:18:04.637Z,10.70
2019-05-02T20:21:02.676Z,10.70
2019-05-02T20:23:35.913Z,10.70
2019-05-02T20:26:09.368Z,10.70
2019-05-02T20:28:43.750Z,10.70
2019-05-02T20:31:16.842Z,10.80
2019-05-02T20:33:51.899Z,10.80
2019-05-02T20:36:24.526Z,10.80
2019-05-02T20:39:11.764Z,10.80
2019-05-02T20:41:44.476Z,10.80
2019-05-02T20:44:17.507Z,10.80
2019-05-02T20:46:51.620Z,10.80
2019-05-02T20:49:25.071Z,10.80
2019-05-02T20:51:57.950Z,10.80
2019-05-02T20:54:32.278Z,10.70
2019-05-02T20:57:05.486Z,10.70
2019-05-02T20:59:38.582Z,10.70
2019-05-02T21:02:12.322Z,10.80
2019-05-02T21:04:45.284Z,10.80
2019-05-02T21:07:29.522Z,10.80
2019-05-02T21:10:13.611Z,10.70
2019-05-02T21:12:46.558Z,10.60
2019-05-02T21:15:21.609Z,10.50
2019-05-02T21:17:54.447Z,10.50
2019-05-02T21:20:27.526Z,10.40
2019-05-02T21:23:01.960Z,10.40
2019-05-02T21:25:34.931Z,10.40
2019-05-02T21:28:07.891Z,10.40
2019-05-02T21:30:41.619Z,10.30
2019-05-02T21:33:37.464Z,10.40
2019-05-02T21:36:12.034Z,10.30
2019-05-02T21:38:45.170Z,10.30
2019-05-02T21:41:18.510Z,10.20
2019-05-02T21:43:51.844Z,10.10
2019-05-02T21:46:24.872Z,10.10
2019-05-02T21:48:57.754Z,10.00
2019-05-02T21:51:56.197Z,9.90
2019-05-02T21:54:57.678Z,9.80
2019-05-02T21:57:32.272Z,9.80
2019-05-02T22:00:08.850Z,9.70
2019-05-02T22:02:43.702Z,9.60
2019-05-02T22:05:16.576Z,9.50
2019-05-02T22:07:49.376Z,9.40
2019-05-02T22:10:22.745Z,9.40
2019-05-02T22:12:55.627Z,9.30
2019-05-02T22:15:28.702Z,9.20
2019-05-02T22:18:01.737Z,9.10
2019-05-02T22:20:34.771Z,9.00
2019-05-02T22:23:07.676Z,9.00
2019-05-02T22:25:41.945Z,8.80
2019-05-02T22:28:15.103Z,8.70
2019-05-02T22:30:48.141Z,8.70
2019-05-02T22:33:22.188Z,8.60
2019-05-02T22:35:55.143Z,8.50
2019-05-02T22:38:46.211Z,8.40
2019-05-02T22:41:19.157Z,8.40
2019-05-02T22:43:52.223Z,8.30
2019-05-02T22:46:43.160Z,8.30
2019-05-02T22:49:16.246Z,8.20
2019-05-02T22:51:49.090Z,8.20
2019-05-02T22:54:27.701Z,8.10
2019-05-02T22:56:56.851Z,8.10
2019-05-02T22:59:31.602Z,8.10
2019-05-02T23:02:04.514Z,8.10
2019-05-02T23:04:37.453Z,8.10
2019-05-02T23:07:10.350Z,8.10
2019-05-02T23:09:43.754Z,8.20
2019-05-02T23:12:16.807Z,8.20
2019-05-02T23:14:49.596Z,8.10
2019-05-02T23:17:23.136Z,8.20
2019-05-02T23:19:56.628Z,8.10
2019-05-02T23:22:29.574Z,8.10
2019-05-02T23:25:40.132Z,8.20
2019-05-02T23:28:16.862Z,8.20
2019-05-02T23:30:51.815Z,8.20
2019-05-02T23:33:27.702Z,8.20
2019-05-02T23:36:02.000Z,8.20
2019-05-02T23:38:35.099Z,8.30
2019-05-02T23:41:07.908Z,8.30
2019-05-02T23:43:41.649Z,8.20
2019-05-02T23:46:14.817Z,8.20
2019-05-02T23:48:48.718Z,8.20
2019-05-02T23:51:22.600Z,8.20
2019-05-02T23:53:55.742Z,8.20
2019-05-02T23:56:28.667Z,8.10
2019-05-02T23:59:02.733Z,8.10
